Time;durP1;ratioP1;P1;durP2;ratioP2;P2;SDS_P1;SDS_P2;PMS_P1;PMS_P2;Temp;Humidity;BMP_temperature;BMP_pressure;BME280_temperature;BME280_humidity;BME280_pressure;Samples;Min_cycle;Max_cycle;Signal;HPM_P1;HPM_P2
2022/06/24 01:45:31;;;;;;;;;;;;;;;16.66;100.00;100711.69;10662020;27;19912;-70
2022/06/24 01:50:34;;;;;;;;;;;;;;;16.56;100.00;100708.50;10621250;27;19923;-67
2022/06/24 01:55:37;;;;;;;;;;;;;;;16.55;100.00;100698.91;10621123;28;20257;-66
2022/06/24 02:00:42;;;;;;;;;;;;;;;16.49;100.00;100714.81;10621239;28;19934;-68
2022/06/24 02:05:46;;;;;;;;;;;;;;;16.37;100.00;100711.66;10620919;28;20241;-71
2022/06/24 02:16:11;;;;;;;;;;;;;;;16.28;100.00;100719.75;10620517;28;19923;-69
2022/06/24 02:21:14;;;;;;;;;;;;;;;16.28;100.00;100714.50;10619590;28;20319;-68
2022/06/24 02:26:18;;;;;;;;;;;;;;;16.34;100.00;100719.59;10619994;28;19932;-68
2022/06/24 02:31:22;;;;;;;;;;;;;;;16.26;100.00;100726.78;10619850;28;19928;-68
2022/06/24 02:36:25;;;;;;;;;;;;;;;16.16;100.00;100729.69;10619936;28;19923;-67
2022/06/24 02:41:28;;;;;;;;;;;;;;;16.19;100.00;100728.72;10619679;28;19924;-66
2022/06/24 02:46:32;;;;;;;;;;;;;;;16.13;100.00;100734.97;10590961;28;19924;-71
2022/06/24 02:51:36;;;;;;;;;;;;;;;16.13;100.00;100734.97;10590969;28;19923;-67
2022/06/24 02:56:38;;;;;;;;;;;;;;;16.18;100.00;100743.59;10590821;28;19934;-67
2022/06/24 03:01:48;;;;;;;;;;;;;;;16.17;100.00;100739.25;10590976;28;19992;-67
2022/06/24 03:06:51;;;;;;;;;;;;;;;16.10;100.00;100735.06;10590328;28;20398;-65
2022/06/24 03:11:54;;;;;;;;;;;;;;;16.15;100.00;100738.41;10589837;28;19924;-68
2022/06/24 03:16:58;;;;;;;;;;;;;;;16.26;100.00;100740.75;10589747;28;19934;-67
2022/06/24 03:22:02;;;;;;;;;;;;;;;16.30;100.00;100741.53;10590098;28;20010;-69
2022/06/24 03:27:05;;;;;;;;;;;;;;;16.37;100.00;100740.47;10589628;28;19923;-66
2022/06/24 03:32:09;;;;;;;;;;;;;;;16.47;100.00;100750.69;10589211;28;19927;-69
2022/06/24 03:37:12;;;;;;;;;;;;;;;16.50;100.00;100749.75;10589040;28;20227;-66
2022/06/24 03:42:15;;;;;;;;;;;;;;;16.58;100.00;100742.53;10588724;28;19924;-67
2022/06/24 03:47:20;;;;;;;;;;;;;;;16.61;100.00;100758.16;10588295;28;19928;-67
2022/06/24 03:52:23;;;;;;;;;;;;;;;16.75;100.00;100751.63;10588605;28;19942;-70
2022/06/24 03:57:26;;;;;;;;;;;;;;;16.88;100.00;100749.47;10545050;28;19924;-67
2022/06/24 04:02:30;;;;;;;;;;;;;;;16.96;100.00;100755.38;10545697;28;19946;-70
2022/06/24 04:07:33;;;;;;;;;;;;;;;17.02;100.00;100750.81;10545419;28;19931;-68
2022/06/24 04:12:36;;;;;;;;;;;;;;;17.13;100.00;100760.97;10545274;28;19924;-65
2022/06/24 04:17:41;;;;;;;;;;;;;;;17.09;100.00;100760.22;10545314;28;19924;-66
2022/06/24 04:22:43;;;;;;;;;;;;;;;17.16;99.96;100760.88;10545072;28;19924;-69
2022/06/24 04:27:47;;;;;;;;;;;;;;;17.29;97.44;100760.44;10544612;28;20341;-65
2022/06/24 04:32:51;;;;;;;;;;;;;;;17.33;96.83;100766.47;10544492;28;19924;-66
2022/06/24 04:37:54;;;;;;;;;;;;;;;17.40;97.71;100756.63;10544402;28;19936;-68
2022/06/24 04:42:57;;;;;;;;;;;;;;;17.39;97.97;100761.03;10544055;28;19924;-67
2022/06/24 04:48:01;;;;;;;;;;;;;;;17.46;97.79;100767.84;10544033;28;19924;-69
2022/06/24 04:53:04;;;;;;;;;;;;;;;17.59;96.20;100763.91;10543640;28;20009;-66
2022/06/24 04:58:07;;;;;;;;;;;;;;;17.67;95.59;100764.50;10543505;28;20334;-67
2022/06/24 05:03:12;;;;;;;;;;;;;;;17.79;94.60;100764.09;10543948;28;19970;-67
2022/06/24 05:08:15;;;;;;;;;;;;;;;17.81;94.28;100767.53;10580920;28;19934;-66
2022/06/24 05:13:18;;;;;;;;;;;;;;;17.92;93.63;100761.94;10582023;28;20368;-66
2022/06/24 05:18:22;;;;;;;;;;;;;;;18.03;93.27;100765.06;10580654;28;20037;-67
2022/06/24 05:23:25;;;;;;;;;;;;;;;18.05;94.38;100766.72;10582688;28;19934;-67
2022/06/24 05:28:28;;;;;;;;;;;;;;;18.15;93.19;100769.91;10583667;28;19934;-62
2022/06/24 05:33:33;;;;;;;;;;;;;;;18.17;91.41;100768.09;10583662;28;19935;-62
2022/06/24 05:38:36;;;;;;;;;;;;;;;18.27;92.62;100767.69;10583255;28;20357;-60
2022/06/24 05:43:44;;;;;;;;;;;;;;;18.39;92.92;100761.16;10227311;27;10000270;-62
2022/06/24 05:48:48;;;;;;;;;;;;;;;18.60;91.10;100760.44;10580017;28;20357;-61
2022/06/24 05:59:12;;;;;;;;;;;;;;;18.77;90.56;100758.03;10576944;28;20389;-61
2022/06/24 06:04:16;;;;;;;;;;;;;;;18.98;89.59;100759.84;10580670;28;19934;-60
2022/06/24 06:09:19;;;;;;;;;;;;;;;19.07;89.17;100750.78;10580847;28;19927;-62
2022/06/24 06:14:22;;;;;;;;;;;;;;;19.28;87.09;100760.44;10580675;28;19930;-66
2022/06/24 06:19:27;;;;;;;;;;;;;;;19.46;86.36;100758.00;10584239;28;20019;-65
2022/06/24 06:24:30;;;;;;;;;;;;;;;19.64;85.51;100750.25;10588944;28;19928;-66
2022/06/24 06:29:33;;;;;;;;;;;;;;;19.75;84.95;100748.03;10590035;28;19923;-65
2022/06/24 06:34:38;;;;;;;;;;;;;;;19.91;84.52;100749.97;10588799;28;20265;-68
2022/06/24 06:39:41;;;;;;;;;;;;;;;19.96;83.70;100748.00;10587850;28;19930;-68
2022/06/24 06:44:44;;;;;;;;;;;;;;;20.10;82.97;100744.78;10612724;27;19930;-65
2022/06/24 06:49:48;;;;;;;;;;;;;;;20.19;82.67;100745.25;10605673;27;20372;-66
2022/06/24 06:54:51;;;;;;;;;;;;;;;20.28;82.49;100736.97;10586227;28;20007;-66
2022/06/24 06:59:54;;;;;;;;;;;;;;;20.46;80.47;100738.81;10587514;28;19923;-65
2022/06/24 07:04:58;;;;;;;;;;;;;;;20.59;80.29;100724.13;10587176;28;19934;-68
2022/06/24 07:10:03;;;;;;;;;;;;;;;20.73;79.73;100725.25;10586496;28;20252;-66
2022/06/24 07:15:06;;;;;;;;;;;;;;;20.97;77.92;100724.16;10586720;28;19951;-65
2022/06/24 07:20:12;;;;;;;;;;;;;;;21.20;74.24;100716.03;10586081;28;19927;-62
2022/06/24 07:25:15;;;;;;;;;;;;;;;21.28;71.74;100713.84;10586683;28;20270;-68
2022/06/24 07:30:18;;;;;;;;;;;;;;;21.43;68.51;100713.16;10585187;28;19930;-66
2022/06/24 07:35:23;;;;;;;;;;;;;;;21.54;67.92;100724.03;10585883;28;19927;-64
2022/06/24 07:40:46;;;;;;;;;;;;;;;21.67;66.99;100719.84;10560537;28;19939;-67
2022/06/24 07:45:49;;;;;;;;;;;;;;;21.79;67.96;100722.75;10611025;27;19935;-64
2022/06/24 07:50:56;;;;;;;;;;;;;;;21.95;66.00;100714.91;10602117;27;19924;-65
2022/06/24 08:01:20;;;;;;;;;;;;;;;22.10;64.37;100695.63;10583059;28;19924;-65
2022/06/24 08:06:24;;;;;;;;;;;;;;;22.14;63.75;100691.88;10583694;28;19927;-64
2022/06/24 08:11:27;;;;;;;;;;;;;;;22.22;65.20;100689.69;10582885;28;19924;-62
2022/06/24 08:16:30;;;;;;;;;;;;;;;22.32;63.42;100690.06;10582352;28;19934;-63
2022/06/24 08:21:35;;;;;;;;;;;;;;;22.44;59.78;100679.69;10582897;28;20264;-65
2022/06/24 08:26:38;;;;;;;;;;;;;;;22.50;60.85;100668.75;10583094;27;19924;-65
2022/06/24 08:31:41;;;;;;;;;;;;;;;22.62;58.59;100678.72;10582525;28;20273;-67
2022/06/24 08:36:46;;;;;;;;;;;;;;;22.68;59.43;100659.88;10582762;28;19935;-68
2022/06/24 08:41:51;;;;;;;;;;;;;;;22.86;58.72;100661.50;10581305;28;19923;-66
2022/06/24 08:46:54;;;;;;;;;;;;;;;23.25;59.56;100650.44;10580058;28;19930;-67
2022/06/24 08:51:59;;;;;;;;;;;;;;;23.19;59.72;100645.50;10582128;28;20342;-63
2022/06/24 08:57:03;;;;;;;;;;;;;;;23.19;61.43;100644.66;10581688;28;19924;-66
2022/06/24 09:02:06;;;;;;;;;;;;;;;23.29;60.21;100645.84;10580224;28;19927;-64
2022/06/24 09:07:16;;;;;;;;;;;;;;;23.37;59.05;100636.50;10582656;28;19982;-68
2022/06/24 09:12:19;;;;;;;;;;;;;;;23.55;58.14;100637.25;10582596;28;19988;-67
2022/06/24 09:17:27;;;;;;;;;;;;;;;23.60;58.02;100632.53;10584104;28;19923;-63
2022/06/24 09:22:32;;;;;;;;;;;;;;;23.78;56.85;100637.56;10581115;28;20167;-68
2022/06/24 09:27:41;;;;;;;;;;;;;;;23.92;56.94;100628.78;10583756;28;20009;-67
2022/06/24 09:32:51;;;;;;;;;;;;;;;24.12;57.98;100625.81;10583433;28;19924;-66
2022/06/24 09:38:15;;;;;;;;;;;;;;;24.25;59.52;100617.94;10577853;28;20013;-66
2022/06/24 09:43:27;;;;;;;;;;;;;;;24.73;54.51;100613.06;10580785;28;19976;-68
2022/06/24 09:48:32;;;;;;;;;;;;;;;24.81;55.04;100605.50;10578058;28;19928;-69
2022/06/24 09:53:37;;;;;;;;;;;;;;;25.00;55.58;100606.00;10582786;28;20023;-67
2022/06/24 09:58:41;;;;;;;;;;;;;;;25.13;56.09;100601.56;10588922;28;19946;-66
2022/06/24 10:03:48;;;;;;;;;;;;;;;26.55;50.56;100593.47;10588092;28;19949;-67
2022/06/24 10:08:53;;;;;;;;;;;;;;;27.29;48.58;100581.72;10581506;28;19940;-66
2022/06/24 10:14:12;;;;;;;;;;;;;;;28.09;48.27;100569.28;10585658;28;20343;-67
2022/06/24 10:19:16;;;;;;;;;;;;;;;28.76;47.67;100567.38;10588107;28;19995;-65
2022/06/24 10:24:39;;;;;;;;;;;;;;;29.26;45.76;100564.94;10587958;28;19927;-66
2022/06/24 10:29:42;;;;;;;;;;;;;;;29.52;45.70;100560.91;10584958;28;19923;-68
2022/06/24 10:34:45;;;;;;;;;;;;;;;29.24;45.49;100561.53;10582140;28;19923;-65
2022/06/24 10:39:51;;;;;;;;;;;;;;;29.66;45.08;100553.50;10581229;28;20036;-66
2022/06/24 10:44:56;;;;;;;;;;;;;;;30.17;44.16;100544.50;10584806;27;19924;-66
2022/06/24 10:50:06;;;;;;;;;;;;;;;30.42;43.44;100536.00;10587397;28;19923;-67
2022/06/24 10:55:42;;;;;;;;;;;;;;;30.47;43.36;100540.94;10576036;28;19954;-67
2022/06/24 11:00:53;;;;;;;;;;;;;;;30.66;42.54;100535.63;10563305;28;19924;-67
2022/06/24 11:05:57;;;;;;;;;;;;;;;30.85;41.88;100522.28;10585834;28;19928;-65
2022/06/24 11:11:00;;;;;;;;;;;;;;;31.10;41.08;100513.66;10586343;28;19934;-70
2022/06/24 11:16:05;;;;;;;;;;;;;;;31.21;41.81;100510.84;10587456;28;20381;-65
2022/06/24 11:21:09;;;;;;;;;;;;;;;32.26;37.39;100507.00;10584790;28;19923;-69
2022/06/24 11:26:13;;;;;;;;;;;;;;;32.60;38.76;100503.53;10586372;28;20289;-67
2022/06/24 11:31:19;;;;;;;;;;;;;;;32.70;40.48;100496.25;10587933;28;19934;-63
2022/06/24 11:36:23;;;;;;;;;;;;;;;31.92;40.35;100500.53;10587688;28;19927;-68
2022/06/24 11:41:27;;;;;;;;;;;;;;;32.81;37.80;100491.66;10585344;28;19985;-69
2022/06/24 11:46:52;;;;;;;;;;;;;;;33.43;36.72;100488.88;10585822;28;19936;-66
2022/06/24 11:51:55;;;;;;;;;;;;;;;33.46;37.61;100485.84;10581825;28;19924;-70
2022/06/24 11:56:58;;;;;;;;;;;;;;;33.42;37.18;100471.81;10587353;28;19934;-64
2022/06/24 12:02:03;;;;;;;;;;;;;;;34.68;33.95;100470.03;10584059;28;19924;-69
2022/06/24 12:07:07;;;;;;;;;;;;;;;34.88;33.63;100458.75;10584170;28;19931;-67
2022/06/24 12:12:11;;;;;;;;;;;;;;;34.92;35.29;100462.84;10586589;28;19924;-66
2022/06/24 12:17:16;;;;;;;;;;;;;;;34.83;35.33;100449.47;10583741;28;19932;-65
2022/06/24 12:22:19;;;;;;;;;;;;;;;34.97;36.12;100456.91;10566942;28;19923;-67
2022/06/24 12:27:32;;;;;;;;;;;;;;;34.32;35.95;100447.03;10586970;28;19924;-65
2022/06/24 12:32:49;;;;;;;;;;;;;;;34.34;35.38;100443.16;10585982;28;19924;-71
2022/06/24 12:37:52;;;;;;;;;;;;;;;34.17;35.98;100438.72;10584303;28;19934;-69
2022/06/24 12:43:04;;;;;;;;;;;;;;;34.37;35.99;100450.06;10579487;28;20265;-66
2022/06/24 12:53:30;;;;;;;;;;;;;;;32.50;37.78;100440.09;10581462;28;20350;-69
2022/06/24 12:58:34;;;;;;;;;;;;;;;32.27;40.48;100431.59;10582666;28;20436;-69
2022/06/24 13:03:39;;;;;;;;;;;;;;;32.25;39.02;100433.59;10579082;28;20023;-64
2022/06/24 13:08:42;;;;;;;;;;;;;;;31.99;38.96;100426.41;10578942;28;20265;-68
2022/06/24 13:13:45;;;;;;;;;;;;;;;32.39;37.71;100416.09;10578280;28;20337;-69
2022/06/24 13:18:49;;;;;;;;;;;;;;;32.17;38.63;100419.25;10579713;28;19934;-67
2022/06/24 13:23:52;;;;;;;;;;;;;;;32.68;39.52;100414.06;10581143;28;19924;-64
2022/06/24 13:28:56;;;;;;;;;;;;;;;33.25;36.84;100410.81;10577215;28;20357;-67
2022/06/24 13:34:00;;;;;;;;;;;;;;;33.44;38.07;100402.56;10579371;28;19934;-66
2022/06/24 13:39:03;;;;;;;;;;;;;;;33.22;37.76;100404.91;10578473;28;20012;-65
2022/06/24 13:44:08;;;;;;;;;;;;;;;33.39;37.17;100406.69;10578704;28;20001;-68
2022/06/24 13:49:12;;;;;;;;;;;;;;;33.11;37.26;100389.88;10581075;28;19976;-68
2022/06/24 13:54:15;;;;;;;;;;;;;;;32.60;38.33;100398.69;10580658;28;19928;-67
2022/06/24 13:59:18;;;;;;;;;;;;;;;32.72;38.15;100394.75;10580886;28;20380;-66
2022/06/24 14:04:23;;;;;;;;;;;;;;;32.79;38.03;100398.50;10580333;28;19927;-69
2022/06/24 14:09:26;;;;;;;;;;;;;;;32.60;36.83;100396.00;10577397;28;19941;-67
2022/06/24 14:14:29;;;;;;;;;;;;;;;32.64;37.82;100402.75;10579816;28;19992;-65
2022/06/24 14:19:34;;;;;;;;;;;;;;;32.69;37.70;100394.22;10577723;28;20388;-66
2022/06/24 14:24:37;;;;;;;;;;;;;;;32.41;38.43;100393.47;10579383;28;19961;-70
2022/06/24 14:29:40;;;;;;;;;;;;;;;32.29;37.32;100383.91;10579915;28;19930;-68
2022/06/24 14:34:44;;;;;;;;;;;;;;;32.39;38.55;100373.94;10579261;28;19934;-66
2022/06/24 14:45:28;;;;;;;;;;;;;;;32.15;37.84;100372.88;10585697;28;19924;-66
2022/06/24 14:50:33;;;;;;;;;;;;;;;32.01;38.37;100374.25;10594920;27;19976;-69
2022/06/24 14:55:36;;;;;;;;;;;;;;;31.82;37.88;100360.03;10583836;28;19924;-68
2022/06/24 15:00:40;;;;;;;;;;;;;;;31.65;38.12;100359.03;10585913;28;19935;-65
2022/06/24 15:05:45;;;;;;;;;;;;;;;31.55;39.46;100356.38;10585726;28;20029;-62
2022/06/24 15:10:49;;;;;;;;;;;;;;;31.32;38.78;100344.28;10586422;28;20003;-63
2022/06/24 15:15:52;;;;;;;;;;;;;;;31.31;39.73;100358.72;10585633;28;19924;-65
2022/06/24 15:20:56;;;;;;;;;;;;;;;31.08;39.75;100352.00;10586440;28;20018;-62
2022/06/24 15:26:10;;;;;;;;;;;;;;;30.74;40.33;100353.47;10584558;28;20014;-69
2022/06/24 15:31:16;;;;;;;;;;;;;;;30.44;40.98;100349.13;10585448;27;20010;-66
2022/06/24 15:36:20;;;;;;;;;;;;;;;30.49;40.53;100348.72;10582590;28;19934;-63
2022/06/24 15:41:23;;;;;;;;;;;;;;;30.39;39.46;100350.56;10584501;28;19923;-63
2022/06/24 15:46:26;;;;;;;;;;;;;;;30.32;39.78;100339.53;10586631;27;19976;-68
2022/06/24 15:51:31;;;;;;;;;;;;;;;30.27;40.89;100343.66;10589003;27;20001;-62
2022/06/24 15:56:34;;;;;;;;;;;;;;;30.06;41.26;100335.69;10584949;28;20019;-63
2022/06/24 16:01:37;;;;;;;;;;;;;;;30.03;41.51;100337.84;10584806;28;19927;-64
2022/06/24 16:06:42;;;;;;;;;;;;;;;29.79;41.99;100342.69;10584657;28;20345;-63
2022/06/24 16:17:02;;;;;;;;;;;;;;;28.98;42.34;100343.63;10584065;28;19928;-63
2022/06/24 16:22:07;;;;;;;;;;;;;;;28.91;42.55;100339.78;10584219;28;20353;-64
2022/06/24 16:32:31;;;;;;;;;;;;;;;28.70;43.95;100336.25;10583639;28;20019;-67
2022/06/24 16:37:36;;;;;;;;;;;;;;;28.59;43.34;100333.69;10583442;28;20260;-63
2022/06/24 16:42:39;;;;;;;;;;;;;;;28.42;43.82;100336.91;10582966;28;20028;-67
2022/06/24 16:47:42;;;;;;;;;;;;;;;28.29;43.11;100334.41;10594981;27;19923;-65
2022/06/24 16:52:47;;;;;;;;;;;;;;;28.17;43.99;100334.56;10625277;27;19931;-63
2022/06/24 16:57:51;;;;;;;;;;;;;;;27.97;43.70;100346.91;10608067;27;19927;-61
2022/06/24 17:02:54;;;;;;;;;;;;;;;27.80;43.73;100333.22;10582423;28;19928;-62
2022/06/24 17:08:00;;;;;;;;;;;;;;;27.66;45.07;100333.47;10582818;28;19931;-63
2022/06/24 17:13:04;;;;;;;;;;;;;;;27.45;45.23;100332.53;10582153;28;20022;-64
2022/06/24 17:18:07;;;;;;;;;;;;;;;27.36;44.52;100334.13;10581728;28;19924;-62
2022/06/24 17:23:11;;;;;;;;;;;;;;;27.28;45.26;100337.34;10581900;28;19924;-64
2022/06/24 17:28:14;;;;;;;;;;;;;;;27.14;44.86;100339.41;10581593;28;19942;-63
2022/06/24 17:33:17;;;;;;;;;;;;;;;26.95;45.47;100334.69;10581991;28;19923;-62
2022/06/24 17:38:22;;;;;;;;;;;;;;;26.86;45.24;100327.41;10581725;28;20346;-63
2022/06/24 17:43:25;;;;;;;;;;;;;;;26.73;45.45;100323.97;10581139;28;19927;-62
2022/06/24 17:48:28;;;;;;;;;;;;;;;26.67;45.29;100327.13;10600068;28;19934;-63
2022/06/24 17:53:33;;;;;;;;;;;;;;;26.55;45.87;100330.69;10623707;27;19923;-64
2022/06/24 17:58:35;;;;;;;;;;;;;;;26.39;46.85;100327.50;10609202;27;19942;-61
2022/06/24 18:03:39;;;;;;;;;;;;;;;26.27;47.15;100322.25;10571934;28;19946;-64
2022/06/24 18:08:43;;;;;;;;;;;;;;;26.09;47.81;100327.97;10580126;28;19935;-65
2022/06/24 18:13:46;;;;;;;;;;;;;;;26.02;47.92;100320.56;10582636;28;20365;-64
2022/06/24 18:18:49;;;;;;;;;;;;;;;25.86;48.09;100318.19;10592018;28;20255;-64
2022/06/24 18:23:53;;;;;;;;;;;;;;;25.76;49.03;100313.63;10591705;28;19984;-65
2022/06/24 18:28:56;;;;;;;;;;;;;;;25.63;50.22;100318.13;10591693;28;20292;-62
2022/06/24 18:33:59;;;;;;;;;;;;;;;25.51;49.52;100321.69;10591393;28;19924;-64
2022/06/24 18:39:04;;;;;;;;;;;;;;;25.43;49.44;100318.75;10591316;28;20011;-61
2022/06/24 18:44:08;;;;;;;;;;;;;;;25.33;50.07;100323.84;10591427;27;19924;-61
2022/06/24 18:49:11;;;;;;;;;;;;;;;25.25;50.13;100318.22;10591099;28;20303;-61
2022/06/24 18:54:15;;;;;;;;;;;;;;;25.05;50.82;100327.59;10591082;28;20223;-62
2022/06/24 18:59:18;;;;;;;;;;;;;;;25.01;50.94;100330.56;10590425;28;20357;-64
2022/06/24 19:04:21;;;;;;;;;;;;;;;24.83;52.12;100330.03;10587920;28;19924;-63
2022/06/24 19:09:26;;;;;;;;;;;;;;;24.65;53.30;100338.38;10588365;28;19934;-60
2022/06/24 19:14:29;;;;;;;;;;;;;;;24.48;54.36;100338.69;10586283;28;19924;-67
2022/06/24 19:19:32;;;;;;;;;;;;;;;24.33;54.00;100348.53;10588776;28;19924;-64
2022/06/24 19:24:36;;;;;;;;;;;;;;;24.27;56.74;100342.75;10589061;28;19924;-61
2022/06/24 19:29:39;;;;;;;;;;;;;;;24.15;56.25;100349.75;10587998;28;20333;-63
2022/06/24 19:34:42;;;;;;;;;;;;;;;24.00;56.91;100351.56;10589532;28;19924;-62
2022/06/24 19:39:46;;;;;;;;;;;;;;;23.91;56.93;100354.81;10589336;28;19934;-65
2022/06/24 19:44:49;;;;;;;;;;;;;;;23.81;57.64;100355.50;10588745;28;19946;-65
2022/06/24 19:49:59;;;;;;;;;;;;;;;23.74;57.46;100364.81;10588631;28;20243;-68
2022/06/24 19:55:03;;;;;;;;;;;;;;;23.55;59.40;100358.97;10588447;28;20372;-62
2022/06/24 20:00:07;;;;;;;;;;;;;;;23.49;59.62;100359.34;10588065;28;20368;-66
2022/06/24 20:10:32;;;;;;;;;;;;;;;23.19;60.59;100356.81;10588030;28;19924;-61
2022/06/24 20:15:35;;;;;;;;;;;;;;;23.11;61.08;100358.22;10588019;28;19924;-62
2022/06/24 20:20:39;;;;;;;;;;;;;;;23.11;60.31;100358.22;10587814;28;19989;-61
2022/06/24 20:25:51;;;;;;;;;;;;;;;22.96;61.17;100369.72;10587385;28;19931;-64
2022/06/24 20:30:55;;;;;;;;;;;;;;;22.88;61.79;100367.56;10587264;28;19976;-64
2022/06/24 20:35:58;;;;;;;;;;;;;;;22.80;61.89;100360.06;10586173;28;19923;-68
2022/06/24 20:41:03;;;;;;;;;;;;;;;22.74;62.14;100363.06;10586454;28;20257;-61
2022/06/24 20:46:06;;;;;;;;;;;;;;;22.68;61.79;100367.88;10586893;28;19924;-65
2022/06/24 20:51:09;;;;;;;;;;;;;;;22.51;62.55;100373.28;10586270;28;19932;-64
2022/06/24 20:56:13;;;;;;;;;;;;;;;22.44;63.75;100374.59;10586197;28;20034;-62
2022/06/24 21:01:16;;;;;;;;;;;;;;;22.37;63.61;100371.44;10585861;27;19934;-65
2022/06/24 21:06:20;;;;;;;;;;;;;;;22.27;65.17;100372.94;10585908;28;20311;-61
2022/06/24 21:11:24;;;;;;;;;;;;;;;22.21;65.85;100378.56;10585887;28;20365;-63
2022/06/24 21:16:27;;;;;;;;;;;;;;;22.11;65.64;100372.09;10585680;28;20080;-62
2022/06/24 21:21:30;;;;;;;;;;;;;;;22.02;66.66;100380.53;10585169;28;19992;-64
2022/06/24 21:26:34;;;;;;;;;;;;;;;21.85;68.31;100375.34;10585414;28;19924;-61
2022/06/24 21:31:37;;;;;;;;;;;;;;;21.75;68.50;100382.06;10585191;28;20376;-66
2022/06/24 21:36:40;;;;;;;;;;;;;;;21.71;68.02;100378.75;10585048;28;19934;-62
2022/06/24 21:41:45;;;;;;;;;;;;;;;21.54;67.75;100384.09;10584754;28;20261;-62
2022/06/24 21:46:48;;;;;;;;;;;;;;;21.44;69.95;100395.25;10584657;28;19938;-63
2022/06/24 21:51:51;;;;;;;;;;;;;;;21.33;70.17;100389.69;10593438;28;19924;-65
2022/06/24 21:56:55;;;;;;;;;;;;;;;21.23;70.41;100389.31;10593370;28;19934;-65
2022/06/24 22:01:58;;;;;;;;;;;;;;;21.12;71.64;100385.56;10593150;28;19924;-61
2022/06/24 22:07:01;;;;;;;;;;;;;;;21.01;72.28;100387.91;10593331;28;20028;-62
2022/06/24 22:12:06;;;;;;;;;;;;;;;20.98;72.04;100393.31;10592734;28;20349;-59
2022/06/24 22:17:09;;;;;;;;;;;;;;;20.97;72.80;100388.97;10592546;28;19924;-63
2022/06/24 22:22:12;;;;;;;;;;;;;;;20.94;72.87;100384.69;10592357;28;19924;-63
2022/06/24 22:27:17;;;;;;;;;;;;;;;20.83;73.40;100388.84;10592067;28;19924;-58
2022/06/24 22:32:20;;;;;;;;;;;;;;;20.76;73.63;100384.78;10572772;28;19924;-58
2022/06/24 22:37:23;;;;;;;;;;;;;;;20.66;73.23;100377.34;10549375;28;19934;-59
2022/06/24 22:42:27;;;;;;;;;;;;;;;20.76;71.51;100379.53;10549162;28;19924;-62
2022/06/24 22:47:30;;;;;;;;;;;;;;;20.71;72.13;100389.47;10549015;28;19930;-63
2022/06/24 22:52:34;;;;;;;;;;;;;;;20.65;73.18;100387.97;10548627;28;19935;-63
2022/06/24 22:57:45;;;;;;;;;;;;;;;20.49;73.20;100382.63;10548393;28;19928;-56
2022/06/24 23:02:48;;;;;;;;;;;;;;;20.41;75.47;100381.31;10547810;28;19928;-62
2022/06/24 23:07:54;;;;;;;;;;;;;;;20.32;75.23;100387.88;10548468;28;19924;-59
2022/06/24 23:12:58;;;;;;;;;;;;;;;20.22;75.71;100375.22;10548042;28;19934;-61
2022/06/24 23:18:01;;;;;;;;;;;;;;;20.17;77.54;100387.78;10547672;28;19924;-59
2022/06/24 23:23:04;;;;;;;;;;;;;;;20.17;76.81;100388.63;10547803;28;19924;-63
2022/06/24 23:28:08;;;;;;;;;;;;;;;20.03;76.79;100391.06;10547740;28;19932;-57
2022/06/24 23:33:11;;;;;;;;;;;;;;;19.95;77.76;100398.47;10547264;28;19934;-59
2022/06/24 23:38:14;;;;;;;;;;;;;;;19.95;77.09;100401.09;10546818;28;19924;-58
2022/06/24 23:43:19;;;;;;;;;;;;;;;19.86;76.44;100403.31;10546630;28;19924;-61
2022/06/24 23:53:42;;;;;;;;;;;;;;;19.78;79.19;100416.84;10546578;28;19924;-60
2022/06/24 23:58:47;;;;;;;;;;;;;;;19.71;78.70;100419.84;10545943;28;19934;-61
